createdAt,value
2018-02-04T00:02:25.186Z,9.10
2018-02-04T00:04:51.541Z,9.00
2018-02-04T00:07:18.013Z,9.10
2018-02-04T00:09:44.432Z,9.00
2018-02-04T00:12:11.203Z,9.00
2018-02-04T00:14:37.749Z,9.00
2018-02-04T00:17:04.322Z,9.00
2018-02-04T00:19:30.808Z,9.00
2018-02-04T00:21:57.258Z,9.00
2018-02-04T00:24:23.591Z,9.00
2018-02-04T00:26:49.891Z,9.00
2018-02-04T00:29:16.166Z,8.90
2018-02-04T00:31:42.413Z,9.00
2018-02-04T00:34:08.729Z,9.00
2018-02-04T00:36:35.027Z,8.90
2018-02-04T00:39:01.319Z,8.90
2018-02-04T00:41:27.586Z,8.90
2018-02-04T00:43:53.875Z,8.90
2018-02-04T00:46:20.134Z,8.90
2018-02-04T00:48:46.383Z,8.80
2018-02-04T00:51:13.014Z,8.80
2018-02-04T00:53:39.255Z,8.90
2018-02-04T00:56:05.510Z,8.80
2018-02-04T00:58:31.799Z,8.90
2018-02-04T01:00:58.065Z,8.90
2018-02-04T01:03:24.440Z,8.80
2018-02-04T01:05:50.720Z,8.80
2018-02-04T01:08:17.012Z,8.80
2018-02-04T01:10:43.267Z,8.70
2018-02-04T01:13:09.700Z,8.70
2018-02-04T01:15:35.948Z,8.70
2018-02-04T01:18:02.220Z,8.80
2018-02-04T01:20:28.542Z,8.70
2018-02-04T01:22:54.829Z,8.70
2018-02-04T01:25:21.076Z,8.80
2018-02-04T01:27:47.356Z,8.80
2018-02-04T01:30:13.574Z,8.80
2018-02-04T01:32:39.885Z,8.70
2018-02-04T01:35:06.267Z,8.70
2018-02-04T01:37:32.506Z,8.80
2018-02-04T01:39:58.887Z,8.70
2018-02-04T01:42:25.188Z,8.70
2018-02-04T01:44:51.425Z,8.60
2018-02-04T01:47:17.676Z,8.80
2018-02-04T01:49:44.066Z,8.80
2018-02-04T01:52:10.285Z,8.80
2018-02-04T01:54:36.627Z,8.70
2018-02-04T01:57:03.000Z,8.70
2018-02-04T01:59:29.226Z,8.60
2018-02-04T02:01:55.549Z,8.60
2018-02-04T02:04:22.098Z,8.60
2018-02-04T02:06:48.431Z,8.50
2018-02-04T02:09:14.630Z,8.70
2018-02-04T02:11:40.917Z,8.60
2018-02-04T02:14:07.165Z,8.60
2018-02-04T02:16:33.391Z,8.60
2018-02-04T02:18:59.656Z,8.60
2018-02-04T02:21:25.861Z,8.50
2018-02-04T02:23:52.191Z,8.60
2018-02-04T02:26:18.528Z,8.60
2018-02-04T02:28:44.779Z,8.50
2018-02-04T02:31:11.013Z,8.50
2018-02-04T02:33:37.381Z,8.60
2018-02-04T02:36:03.634Z,8.50
2018-02-04T02:38:29.896Z,8.50
2018-02-04T02:40:56.241Z,8.50
2018-02-04T02:43:22.537Z,8.50
2018-02-04T02:45:48.844Z,8.40
2018-02-04T02:48:15.129Z,8.50
2018-02-04T02:50:41.379Z,8.50
2018-02-04T02:53:07.710Z,8.50
2018-02-04T02:55:34.084Z,8.50
2018-02-04T02:58:00.370Z,8.50
2018-02-04T03:00:26.604Z,8.50
2018-02-04T03:02:52.923Z,8.50
2018-02-04T03:05:19.159Z,8.50
2018-02-04T03:07:45.389Z,8.50
2018-02-04T03:10:11.674Z,8.40
2018-02-04T03:12:38.004Z,8.40
2018-02-04T03:15:04.317Z,8.40
2018-02-04T03:17:30.650Z,8.50
2018-02-04T03:19:56.958Z,8.40
2018-02-04T03:22:23.263Z,8.40
2018-02-04T03:24:49.672Z,8.30
2018-02-04T03:27:15.894Z,8.10
2018-02-04T03:29:42.136Z,8.10
2018-02-04T03:32:08.433Z,8.10
2018-02-04T03:34:34.789Z,8.00
2018-02-04T03:37:01.002Z,8.10
2018-02-04T03:39:27.300Z,8.10
2018-02-04T03:41:53.525Z,8.00
2018-02-04T03:44:19.787Z,8.00
2018-02-04T03:46:46.129Z,7.90
2018-02-04T03:49:12.422Z,7.80
2018-02-04T03:51:38.682Z,7.80
2018-02-04T03:54:05.082Z,7.70
2018-02-04T03:56:31.336Z,7.60
2018-02-04T03:58:57.573Z,7.60
2018-02-04T04:01:23.959Z,7.60
2018-02-04T04:03:50.333Z,7.50
2018-02-04T04:06:16.577Z,7.50
2018-02-04T04:08:42.866Z,7.40
2018-02-04T04:11:09.124Z,7.40
2018-02-04T04:13:35.492Z,7.30
2018-02-04T04:16:01.817Z,7.30
2018-02-04T04:18:28.082Z,7.20
2018-02-04T04:20:54.411Z,7.40
2018-02-04T04:23:20.704Z,7.20
2018-02-04T04:25:46.958Z,7.20
2018-02-04T04:28:13.322Z,7.20
2018-02-04T04:30:39.597Z,7.10
2018-02-04T04:33:05.916Z,7.10
2018-02-04T04:35:32.160Z,7.10
2018-02-04T04:37:58.480Z,7.10
2018-02-04T04:40:24.721Z,7.10
2018-02-04T04:42:51.061Z,7.10
2018-02-04T04:45:17.295Z,7.10
2018-02-04T04:47:43.652Z,7.10
2018-02-04T04:50:09.923Z,7.00
2018-02-04T04:52:36.312Z,7.00
2018-02-04T04:55:02.587Z,7.00
2018-02-04T04:57:28.854Z,7.00
2018-02-04T04:59:55.219Z,7.10
2018-02-04T05:02:21.588Z,7.00
2018-02-04T05:04:48.077Z,6.90
2018-02-04T05:07:14.440Z,6.80
2018-02-04T05:09:40.813Z,6.80
2018-02-04T05:12:07.145Z,6.70
2018-02-04T05:14:33.558Z,6.80
2018-02-04T05:16:59.888Z,6.80
2018-02-04T05:19:26.181Z,6.80
2018-02-04T05:21:52.460Z,6.70
2018-02-04T05:24:18.745Z,6.70
2018-02-04T05:26:45.044Z,6.70
2018-02-04T05:29:11.419Z,6.70
2018-02-04T05:31:37.912Z,6.70
2018-02-04T05:34:04.212Z,6.60
2018-02-04T05:36:30.676Z,6.70
2018-02-04T05:38:56.976Z,6.60
2018-02-04T05:41:23.192Z,6.60
2018-02-04T05:43:49.697Z,6.60
2018-02-04T05:46:16.008Z,6.60
2018-02-04T05:48:42.325Z,6.60
2018-02-04T05:51:08.663Z,6.60
2018-02-04T05:53:34.972Z,6.60
2018-02-04T05:56:01.240Z,6.60
2018-02-04T05:58:27.575Z,6.60
2018-02-04T06:00:53.845Z,6.60
2018-02-04T06:03:20.191Z,6.60
2018-02-04T06:05:46.440Z,6.50
2018-02-04T06:08:12.704Z,6.50
2018-02-04T06:10:38.970Z,6.50
2018-02-04T06:13:05.616Z,6.40
2018-02-04T06:15:31.872Z,6.40
2018-02-04T06:17:58.122Z,6.50
2018-02-04T06:20:24.946Z,6.50
2018-02-04T06:22:51.347Z,6.50
2018-02-04T06:25:18.425Z,6.40
2018-02-04T06:27:44.748Z,6.60
2018-02-04T06:30:11.017Z,6.50
2018-02-04T06:32:37.392Z,6.60
2018-02-04T06:35:03.781Z,6.50
2018-02-04T06:37:30.105Z,6.60
2018-02-04T06:39:56.382Z,6.60
2018-02-04T06:42:22.684Z,6.60
2018-02-04T06:44:49.076Z,6.70
2018-02-04T06:47:15.353Z,6.70
2018-02-04T06:49:41.637Z,6.70
2018-02-04T06:52:07.911Z,6.70
2018-02-04T06:54:34.284Z,6.70
2018-02-04T06:57:00.777Z,6.60
2018-02-04T06:59:27.061Z,6.60
2018-02-04T07:01:53.459Z,6.60
2018-02-04T07:04:19.906Z,6.70
2018-02-04T07:06:46.412Z,6.70
2018-02-04T07:09:12.675Z,6.70
2018-02-04T07:11:39.165Z,6.60
2018-02-04T07:14:05.658Z,6.70
2018-02-04T07:16:32.116Z,6.80
2018-02-04T07:18:59.035Z,6.80
2018-02-04T07:21:25.639Z,6.80
2018-02-04T07:23:53.046Z,6.80
2018-02-04T07:26:19.438Z,6.80
2018-02-04T07:28:45.704Z,6.70
2018-02-04T07:31:11.963Z,6.80
2018-02-04T07:33:38.499Z,6.70
2018-02-04T07:36:05.020Z,6.70
2018-02-04T07:38:31.846Z,6.70
2018-02-04T07:40:58.353Z,6.80
2018-02-04T07:43:24.834Z,6.80
2018-02-04T07:45:51.526Z,6.80
2018-02-04T07:48:18.186Z,6.80
2018-02-04T07:50:45.003Z,6.80
2018-02-04T07:53:12.070Z,6.80
2018-02-04T07:55:39.650Z,6.80
2018-02-04T07:58:06.715Z,6.90
2018-02-04T08:00:35.065Z,7.00
2018-02-04T08:03:02.756Z,7.00
2018-02-04T08:05:29.388Z,7.00
2018-02-04T08:07:57.288Z,7.00
2018-02-04T08:10:24.227Z,7.10
2018-02-04T08:12:51.269Z,7.00
2018-02-04T08:15:18.174Z,7.30
2018-02-04T08:17:44.828Z,7.20
2018-02-04T08:20:11.802Z,7.00
2018-02-04T08:22:38.371Z,7.00
2018-02-04T08:25:04.872Z,6.90
2018-02-04T08:27:31.413Z,6.90
2018-02-04T08:29:58.977Z,6.90
2018-02-04T08:32:26.158Z,7.00
2018-02-04T08:34:53.036Z,7.00
2018-02-04T08:37:19.467Z,7.00
2018-02-04T08:39:46.286Z,7.00
2018-02-04T08:42:12.615Z,7.00
2018-02-04T08:44:39.066Z,7.10
2018-02-04T08:47:06.798Z,7.10
2018-02-04T08:49:33.413Z,7.20
2018-02-04T08:51:59.956Z,7.20
2018-02-04T08:54:26.657Z,7.20
2018-02-04T09:02:56.512Z,26.00
2018-02-04T09:09:16.976Z,12.60
2018-02-04T09:11:43.427Z,10.00
2018-02-04T09:14:09.840Z,9.20
2018-02-04T09:16:36.474Z,8.90
2018-02-04T09:19:03.071Z,8.50
2018-02-04T09:21:30.108Z,8.30
2018-02-04T09:23:57.748Z,8.20
2018-02-04T09:26:24.910Z,8.40
2018-02-04T09:28:51.831Z,8.40
2018-02-04T09:31:18.882Z,8.40
2018-02-04T09:33:45.782Z,8.40
2018-02-04T09:36:12.294Z,8.30
2018-02-04T09:38:39.285Z,8.50
2018-02-04T09:41:05.884Z,8.40
2018-02-04T09:43:33.127Z,8.30
2018-02-04T09:45:59.917Z,8.30
2018-02-04T09:48:26.718Z,8.30
2018-02-04T09:53:26.606Z,8.50
2018-02-04T09:55:52.881Z,8.40
2018-02-04T09:58:19.476Z,8.10
2018-02-04T10:00:47.756Z,8.00
2018-02-04T10:03:14.340Z,8.00
2018-02-04T10:05:41.102Z,8.20
2018-02-04T10:08:07.729Z,8.40
2018-02-04T10:10:34.723Z,8.50
2018-02-04T10:13:01.622Z,8.60
2018-02-04T10:15:28.657Z,8.60
2018-02-04T10:17:55.927Z,8.50
2018-02-04T10:20:22.913Z,8.30
2018-02-04T10:22:50.922Z,8.50
2018-02-04T10:25:17.349Z,8.40
2018-02-04T10:27:44.839Z,8.50
2018-02-04T10:30:12.878Z,8.60
2018-02-04T10:32:39.810Z,8.70
2018-02-04T10:35:07.776Z,8.90
2018-02-04T10:37:34.647Z,8.90
2018-02-04T10:40:04.339Z,9.00
2018-02-04T10:42:31.374Z,9.20
2018-02-04T10:44:58.524Z,9.30
2018-02-04T10:47:26.464Z,9.10
2018-02-04T10:49:53.587Z,9.30
2018-02-04T10:52:21.759Z,9.40
2018-02-04T10:54:50.071Z,9.60
2018-02-04T10:57:17.078Z,9.70
2018-02-04T10:59:49.976Z,9.80
2018-02-04T11:02:18.043Z,9.80
2018-02-04T11:04:46.682Z,9.70
2018-02-04T11:07:15.106Z,9.80
2018-02-04T11:09:42.664Z,9.80
2018-02-04T11:12:10.863Z,10.80
2018-02-04T11:14:39.840Z,10.80
2018-02-04T11:17:07.843Z,10.60
2018-02-04T11:19:37.724Z,10.20
2018-02-04T11:22:06.452Z,10.10
2018-02-04T11:24:34.712Z,9.80
2018-02-04T11:27:02.436Z,10.10
2018-02-04T11:29:29.448Z,9.90
2018-02-04T11:31:56.989Z,10.10
2018-02-04T11:34:24.669Z,9.70
2018-02-04T11:36:52.130Z,9.60
2018-02-04T11:39:20.268Z,9.60
2018-02-04T11:41:47.462Z,9.30
2018-02-04T11:44:15.049Z,9.30
2018-02-04T11:46:43.137Z,9.10
2018-02-04T11:49:12.167Z,9.40
2018-02-04T11:51:40.785Z,9.50
2018-02-04T11:54:08.278Z,9.70
2018-02-04T11:56:36.843Z,9.70
2018-02-04T11:59:05.156Z,9.90
2018-02-04T12:01:32.801Z,9.90
2018-02-04T12:04:00.074Z,9.90
2018-02-04T12:06:28.440Z,10.00
2018-02-04T12:08:56.574Z,10.10
2018-02-04T12:11:26.615Z,10.10
2018-02-04T12:13:54.623Z,10.00
2018-02-04T12:16:21.903Z,10.20
2018-02-04T12:18:49.641Z,9.80
2018-02-04T12:21:16.559Z,9.80
2018-02-04T12:23:43.998Z,9.40
2018-02-04T12:26:12.027Z,9.80
2018-02-04T12:28:39.292Z,9.70
2018-02-04T12:31:07.004Z,10.00
2018-02-04T12:33:34.441Z,10.00
2018-02-04T12:36:00.950Z,9.90
2018-02-04T12:38:28.010Z,9.90
2018-02-04T12:40:54.648Z,9.90
2018-02-04T12:43:21.596Z,10.10
2018-02-04T12:45:48.218Z,10.00
2018-02-04T12:48:14.796Z,10.10
2018-02-04T12:50:41.402Z,10.00
2018-02-04T12:53:08.327Z,10.30
2018-02-04T12:55:34.891Z,10.20
2018-02-04T12:58:01.298Z,10.40
2018-02-04T13:00:28.200Z,10.40
2018-02-04T13:02:54.742Z,10.60
2018-02-04T13:05:21.192Z,10.60
2018-02-04T13:07:47.772Z,10.40
2018-02-04T13:10:14.361Z,10.40
2018-02-04T13:12:40.729Z,10.50
2018-02-04T13:15:07.296Z,10.60
2018-02-04T13:17:34.469Z,10.60
2018-02-04T13:20:01.646Z,10.30
2018-02-04T13:22:29.395Z,10.30
2018-02-04T13:24:57.014Z,10.00
2018-02-04T13:27:23.967Z,10.00
2018-02-04T13:29:51.140Z,9.70
2018-02-04T13:32:18.567Z,9.60
2018-02-04T13:34:46.799Z,9.40
2018-02-04T13:37:14.032Z,9.60
2018-02-04T13:39:40.998Z,9.30
2018-02-04T13:42:09.150Z,9.30
2018-02-04T13:44:36.104Z,9.30
2018-02-04T13:47:02.833Z,9.20
2018-02-04T13:49:32.892Z,9.40
2018-02-04T13:52:02.739Z,9.80
2018-02-04T13:54:29.314Z,9.80
2018-02-04T13:56:56.554Z,10.00
2018-02-04T13:59:23.226Z,10.00
2018-02-04T14:01:49.841Z,9.90
2018-02-04T14:04:16.449Z,9.70
2018-02-04T14:06:44.999Z,9.70
2018-02-04T14:09:11.658Z,9.70
2018-02-04T14:11:38.384Z,9.50
2018-02-04T14:14:05.361Z,9.50
2018-02-04T14:16:32.045Z,9.40
2018-02-04T14:18:58.729Z,9.30
2018-02-04T14:21:25.623Z,9.20
2018-02-04T14:23:53.143Z,9.20
2018-02-04T14:26:21.121Z,9.30
2018-02-04T14:28:50.177Z,9.20
2018-02-04T14:31:18.625Z,9.10
2018-02-04T14:33:47.576Z,9.10
2018-02-04T14:36:17.501Z,9.00
2018-02-04T14:38:47.060Z,8.90
2018-02-04T14:41:15.497Z,8.90
2018-02-04T14:43:43.724Z,8.60
2018-02-04T14:46:12.528Z,8.60
2018-02-04T14:48:41.607Z,8.60
2018-02-04T14:51:10.521Z,8.60
2018-02-04T14:53:37.784Z,8.50
2018-02-04T14:56:04.843Z,8.40
2018-02-04T14:58:32.671Z,8.40
2018-02-04T15:01:00.177Z,8.30
2018-02-04T15:03:29.991Z,8.20
2018-02-04T15:05:57.336Z,8.10
2018-02-04T15:08:27.073Z,8.10
2018-02-04T15:11:00.619Z,8.10
2018-02-04T15:13:28.397Z,7.90
2018-02-04T15:15:56.923Z,7.80
2018-02-04T15:18:24.305Z,7.80
2018-02-04T15:20:52.167Z,7.80
2018-02-04T15:23:19.343Z,7.80
2018-02-04T15:25:46.871Z,7.70
2018-02-04T15:28:15.706Z,7.60
2018-02-04T15:30:42.920Z,7.40
2018-02-04T15:33:10.091Z,7.20
2018-02-04T15:35:38.000Z,7.20
2018-02-04T15:38:04.878Z,7.20
2018-02-04T15:40:31.839Z,7.10
2018-02-04T15:43:00.987Z,7.00
2018-02-04T15:45:29.849Z,6.80
2018-02-04T15:47:58.749Z,6.80
2018-02-04T15:50:26.496Z,6.80
2018-02-04T15:52:55.139Z,6.80
2018-02-04T15:55:23.335Z,6.80
2018-02-04T15:57:50.178Z,6.70
2018-02-04T16:00:17.161Z,6.60
2018-02-04T16:02:43.998Z,6.40
2018-02-04T16:05:11.891Z,6.30
2018-02-04T16:07:39.867Z,6.10
2018-02-04T16:10:06.836Z,5.90
2018-02-04T16:12:35.615Z,6.00
2018-02-04T16:15:05.285Z,6.10
2018-02-04T16:17:32.494Z,6.10
2018-02-04T16:20:01.171Z,6.00
2018-02-04T16:22:28.405Z,5.90
2018-02-04T16:24:55.324Z,5.80
2018-02-04T16:27:22.819Z,6.00
2018-02-04T16:29:49.515Z,5.90
2018-02-04T16:32:16.225Z,5.80
2018-02-04T16:34:46.531Z,5.70
2018-02-04T16:37:14.361Z,5.50
2018-02-04T16:39:41.463Z,5.50
2018-02-04T16:42:08.153Z,5.40
2018-02-04T16:44:34.898Z,5.30
2018-02-04T16:47:04.549Z,5.10
2018-02-04T16:49:31.562Z,5.10
2018-02-04T16:51:58.413Z,5.10
2018-02-04T16:54:31.017Z,5.30
2018-02-04T16:56:58.505Z,5.30
2018-02-04T16:59:26.700Z,5.10
2018-02-04T17:01:53.898Z,5.10
2018-02-04T17:04:21.639Z,4.90
2018-02-04T17:06:48.562Z,4.80
2018-02-04T17:09:15.120Z,4.60
2018-02-04T17:11:41.749Z,4.40
2018-02-04T17:14:08.304Z,4.40
2018-02-04T17:16:35.040Z,4.30
2018-02-04T17:19:01.652Z,4.30
2018-02-04T17:21:29.060Z,4.10
2018-02-04T17:23:58.505Z,4.10
2018-02-04T17:26:25.499Z,4.00
2018-02-04T17:28:52.169Z,3.90
2018-02-04T17:31:19.492Z,3.90
2018-02-04T17:33:47.037Z,3.90
2018-02-04T17:36:14.301Z,4.00
2018-02-04T17:38:41.351Z,4.00
2018-02-04T17:41:08.945Z,3.90
2018-02-04T17:43:36.547Z,3.80
2018-02-04T17:46:03.925Z,4.00
2018-02-04T17:48:30.496Z,4.00
2018-02-04T17:50:57.417Z,3.90
2018-02-04T17:53:24.136Z,3.80
2018-02-04T17:55:54.207Z,3.80
2018-02-04T17:58:21.636Z,3.80
2018-02-04T18:00:49.082Z,4.00
2018-02-04T18:03:16.651Z,4.10
2018-02-04T18:05:44.362Z,3.80
2018-02-04T18:08:12.279Z,3.80
2018-02-04T18:10:39.390Z,3.80
2018-02-04T18:13:06.549Z,3.80
2018-02-04T18:15:33.432Z,3.80
2018-02-04T18:18:00.526Z,3.70
2018-02-04T18:20:27.490Z,3.70
2018-02-04T18:22:54.692Z,3.70
2018-02-04T18:25:21.490Z,3.60
2018-02-04T18:27:48.360Z,3.50
2018-02-04T18:30:15.066Z,3.50
2018-02-04T18:32:41.678Z,3.40
2018-02-04T18:35:09.664Z,3.30
2018-02-04T18:37:36.854Z,3.30
2018-02-04T18:40:03.596Z,3.20
2018-02-04T18:42:30.095Z,3.10
2018-02-04T18:44:58.071Z,3.00
2018-02-04T18:47:24.909Z,2.90
2018-02-04T18:49:51.839Z,2.70
2018-02-04T18:52:19.136Z,2.80
2018-02-04T18:54:46.095Z,2.70
2018-02-04T18:57:13.964Z,2.70
2018-02-04T18:59:43.952Z,2.60
2018-02-04T19:02:11.499Z,2.70
2018-02-04T19:04:38.837Z,2.60
2018-02-04T19:07:06.470Z,2.60
2018-02-04T19:09:36.804Z,2.60
2018-02-04T19:12:05.774Z,2.60
2018-02-04T19:14:32.866Z,2.50
2018-02-04T19:17:00.111Z,2.40
2018-02-04T19:19:28.087Z,2.30
2018-02-04T19:21:55.955Z,2.20
2018-02-04T19:24:27.805Z,2.20
2018-02-04T19:26:57.315Z,2.00
2018-02-04T19:29:25.036Z,2.00
2018-02-04T19:31:52.202Z,2.00
2018-02-04T19:34:20.558Z,1.90
2018-02-04T19:36:48.886Z,1.90
2018-02-04T19:39:17.473Z,1.80
2018-02-04T19:41:46.048Z,1.80
2018-02-04T19:44:13.630Z,1.70
2018-02-04T19:46:43.545Z,1.60
2018-02-04T19:49:10.621Z,1.50
2018-02-04T19:51:38.689Z,1.50
2018-02-04T19:54:06.117Z,1.50
2018-02-04T19:56:33.668Z,1.40
2018-02-04T19:59:03.500Z,1.40
2018-02-04T20:01:32.611Z,1.40
2018-02-04T20:04:02.373Z,1.30
2018-02-04T20:06:30.455Z,1.30
2018-02-04T20:08:58.735Z,1.30
2018-02-04T20:11:26.190Z,1.30
2018-02-04T20:13:53.945Z,1.40
2018-02-04T20:16:21.366Z,1.40
2018-02-04T20:18:48.927Z,1.40
2018-02-04T20:21:16.585Z,1.20
2018-02-04T20:23:45.915Z,1.30
2018-02-04T20:26:13.057Z,1.20
2018-02-04T20:28:39.913Z,1.30
2018-02-04T20:31:07.834Z,1.30
2018-02-04T20:33:46.979Z,1.30
2018-02-04T20:36:13.970Z,1.20
2018-02-04T20:38:41.647Z,1.20
2018-02-04T20:41:08.161Z,1.00
2018-02-04T20:43:34.691Z,1.20
2018-02-04T20:46:01.257Z,1.20
2018-02-04T20:48:27.969Z,1.20
2018-02-04T20:50:54.902Z,1.20
2018-02-04T20:53:21.810Z,1.20
2018-02-04T20:55:49.536Z,1.20
2018-02-04T20:58:16.492Z,1.20
2018-02-04T21:00:43.157Z,1.10
2018-02-04T21:03:09.856Z,1.10
2018-02-04T21:05:41.208Z,1.10
2018-02-04T21:08:07.723Z,1.00
2018-02-04T21:10:34.251Z,0.90
2018-02-04T21:13:00.781Z,0.90
2018-02-04T21:15:27.327Z,0.90
2018-02-04T21:17:53.929Z,0.90
2018-02-04T21:20:20.628Z,0.80
2018-02-04T21:22:47.133Z,0.70
2018-02-04T21:25:13.641Z,0.70
2018-02-04T21:27:40.157Z,0.70
2018-02-04T21:30:06.756Z,0.70
2018-02-04T21:32:33.288Z,0.60
2018-02-04T21:34:59.788Z,0.60
2018-02-04T21:37:27.188Z,0.60
2018-02-04T21:39:53.712Z,0.60
2018-02-04T21:42:20.221Z,0.60
2018-02-04T21:44:47.342Z,0.60
2018-02-04T21:47:14.045Z,0.60
2018-02-04T21:49:40.519Z,0.60
2018-02-04T21:52:07.071Z,0.60
2018-02-04T21:54:33.600Z,0.60
2018-02-04T21:56:59.996Z,0.60
2018-02-04T21:59:26.641Z,0.60
2018-02-04T22:01:53.202Z,0.60
2018-02-04T22:04:19.954Z,0.60
2018-02-04T22:06:46.553Z,0.60
2018-02-04T22:09:13.045Z,0.60
2018-02-04T22:11:40.889Z,0.70
2018-02-04T22:14:07.479Z,0.70
2018-02-04T22:16:34.225Z,0.70
2018-02-04T22:19:00.796Z,0.80
2018-02-04T22:21:27.326Z,0.80
2018-02-04T22:23:53.829Z,0.80
2018-02-04T22:26:20.339Z,0.80
2018-02-04T22:28:46.830Z,0.90
2018-02-04T22:31:13.267Z,0.90
2018-02-04T22:33:39.657Z,1.00
2018-02-04T22:36:06.084Z,1.00
2018-02-04T22:38:32.529Z,1.10
2018-02-04T22:40:58.986Z,1.10
2018-02-04T22:43:25.458Z,1.10
2018-02-04T22:45:53.006Z,1.10
2018-02-04T22:48:19.491Z,1.20
2018-02-04T22:50:45.961Z,1.20
2018-02-04T22:53:12.557Z,1.30
2018-02-04T22:55:44.887Z,1.20
2018-02-04T22:58:11.290Z,1.10
2018-02-04T23:00:37.739Z,1.10
2018-02-04T23:03:04.205Z,1.10
2018-02-04T23:05:31.686Z,0.90
2018-02-04T23:07:58.047Z,0.90
2018-02-04T23:10:24.577Z,0.90
2018-02-04T23:12:51.023Z,0.80
2018-02-04T23:15:18.536Z,0.80
2018-02-04T23:17:44.966Z,0.60
2018-02-04T23:20:11.565Z,0.50
2018-02-04T23:22:38.026Z,0.50
2018-02-04T23:25:04.512Z,0.50
2018-02-04T23:27:30.993Z,0.50
2018-02-04T23:29:57.539Z,0.40
2018-02-04T23:32:23.941Z,0.30
2018-02-04T23:34:57.628Z,0.30
2018-02-04T23:37:24.054Z,0.30
2018-02-04T23:39:50.435Z,0.20
2018-02-04T23:42:16.851Z,0.20
2018-02-04T23:44:43.446Z,0.50
2018-02-04T23:47:09.843Z,0.20
2018-02-04T23:49:36.263Z,0.20
2018-02-04T23:52:02.635Z,0.10
2018-02-04T23:54:29.079Z,0.00
2018-02-04T23:56:55.506Z,0.00
2018-02-04T23:59:21.948Z,-0.10
